Lakewood Village, Texas
Current Conditions -  °F | °C
As of 4:53 PM on Tuesday 27 Jan 2015 (Local Time) from KDTO Reporting Station
Clear Clear  
Wind Chill: 74°   Ceiling: Unl
Heat Index: 74°   Visibility: 10mi
Dew Point: 38°   Wind: 8mph
Humidity: 27%   Direction: 180°S
Pressure: 30.09"   Gusts: NA
Location:  33.1913°N, 96.9829°W
Report Text: KDTO 272253Z 18007KT 10SM CLR 23/03 A3009 RMK AO2 SLP186 T02330033
Loading
Personal Weather Stations






























Interactive Weather Map New forecast layout! Learn more

10-Day Weather Forecast

Advertisements
Track Severe Weather on mobile